Airfield :
LOGIN :

Register | Disclaimer

   EN    FR    IT 

 










Legend :    VFR   Marginal VFR   IFR   Intensive IFR   Very Intensive IFR
Visi :
Ceiling :
>= 8 km
>= 3000ft
5 to 8 km
1000 to 3000 ft
1500m to 5 km
500 to 1000 ft
800 to 1500m
200 to 500 ft
< 800m
< 200 ft
Symbols :   Thunderstorms  Fog  Heavy snow  Heavy precipitations  Wind > 20 kt
SIGMETs :     Misc.  Thunderstorms  Icing  Turbulence  Mountain Waves  Volcanic Ashes






- Airport Elevation : 3100 ft
- IATA code : NAV


LTAZ - Kapadokya

CURRENT METAR :
  • 192120Z 20004KT CAVOK M09/M11 Q1018 RMK RWY29 VRB02KT

EXPIRED METARs :
  • 192050Z 20004KT CAVOK M09/M10 Q1018 RMK RWY29 21003KT
  • 192020Z 21006KT CAVOK M08/M10 Q1018 RMK RWY29 24002KT
  • 191950Z 22003KT CAVOK M08/M09 Q1018 RMK RWY29 19004KT
  • 191920Z 23002KT CAVOK M07/M09 Q1018 RMK RWY29 19003KT
  • 191850Z 20003KT 160V220 CAVOK M07/M10 Q1018 RMK RWY29 18003KT

TAF TAF LTAZ
Valid from the 19 at 18:00 until the 20 at 18:00 UTC


191640Z 1918/2018 VRB02KT CAVOK
TEMPO 2009/2013 30012KT FEW040



MET'MAP, your aeronautical weather chart ! - Copyright ORBIFLY December 2007 - Disclaimer

ORBIFLY MET'MAP TEAM :

Programming & Development : Alexandra Zaïnal
Concept & original design : Baudouin d'Aumeries
Assistance for programming : Marc-Olivier Méhu
Technical & hardware support : Manuel Goepfert

Contact : metmap@orbifly.com




SOURCES & CREDITS :

   NOAA